createdAt,value
2023-03-03T00:00:02.371Z,62.2
2023-03-03T00:15:02.026Z,62.2
2023-03-03T00:30:02.195Z,62.2
2023-03-03T00:45:02.796Z,62.2
2023-03-03T01:00:02.085Z,62.2
2023-03-03T01:15:01.833Z,62.2
2023-03-03T01:30:02.384Z,62.2
2023-03-03T01:45:02.917Z,62.2
2023-03-03T02:00:01.563Z,62.2
2023-03-03T02:15:02.078Z,62.2
2023-03-03T02:30:02.592Z,62.2
2023-03-03T02:45:01.370Z,62.2
2023-03-03T03:00:01.765Z,62.2
2023-03-03T03:15:02.185Z,62.2
2023-03-03T03:30:02.761Z,62.2
2023-03-03T03:45:01.616Z,62.2
2023-03-03T04:00:02.039Z,62.2
2023-03-03T04:15:02.380Z,62.2
2023-03-03T04:30:07.198Z,62.2
2023-03-03T04:45:01.550Z,62.2
2023-03-03T05:00:02.042Z,62.2
2023-03-03T05:15:02.553Z,62.2
2023-03-03T05:30:01.367Z,62.2
2023-03-03T05:45:01.708Z,62.2
2023-03-03T06:00:02.208Z,62.2
2023-03-03T06:15:02.775Z,62.2
2023-03-03T06:30:03.413Z,62.2
2023-03-03T06:45:01.949Z,62.2
2023-03-03T07:00:02.506Z,62.2
2023-03-03T07:15:01.310Z,62.2
2023-03-03T07:30:01.707Z,62.2
2023-03-03T07:45:02.143Z,62.2
2023-03-03T08:00:01.402Z,62.2
2023-03-03T08:15:01.517Z,62.2
2023-03-03T08:30:01.923Z,62.2
2023-03-03T08:45:02.372Z,62.2
2023-03-03T09:00:01.635Z,62.2
2023-03-03T09:15:01.666Z,62.2
2023-03-03T09:30:02.067Z,62.2
2023-03-03T09:45:01.395Z,62.2
2023-03-03T10:00:01.792Z,62.2
2023-03-03T10:15:01.828Z,62.2
2023-03-03T10:30:02.257Z,62.2
2023-03-03T10:45:03.140Z,62.2
2023-03-03T11:00:02.035Z,62.2
2023-03-03T11:15:02.234Z,16.1
2023-03-03T11:30:02.303Z,16.1
2023-03-03T11:45:02.670Z,16.1
2023-03-03T12:00:01.956Z,16.1
2023-03-03T12:15:02.898Z,16.1
2023-03-03T12:30:04.723Z,7.94
2023-03-03T12:45:01.596Z,8.13
2023-03-03T13:00:01.971Z,7.55
2023-03-03T13:15:01.968Z,7.3
2023-03-03T13:30:01.630Z,6.36
2023-03-03T13:45:02.163Z,7.3
2023-03-03T14:00:02.066Z,6.67
2023-03-03T14:15:01.542Z,5.98
2023-03-03T14:30:02.520Z,5.55
2023-03-03T14:45:02.290Z,5.48
2023-03-03T15:00:02.583Z,5.5
2023-03-03T15:15:02.315Z,5.26
2023-03-03T15:30:01.838Z,4.73
2023-03-03T15:45:02.184Z,4.9
2023-03-03T16:00:01.584Z,4.88
2023-03-03T16:15:01.742Z,4.55
2023-03-03T16:30:02.135Z,4.28
2023-03-03T16:45:01.469Z,4.11
2023-03-03T17:00:01.807Z,3.97
2023-03-03T17:15:02.689Z,3.92
2023-03-03T17:30:02.346Z,3.76
2023-03-03T17:45:02.480Z,3.57
2023-03-03T18:00:01.987Z,3.55
2023-03-03T18:15:02.508Z,3.47
2023-03-03T18:30:02.150Z,2.96
2023-03-03T18:45:01.550Z,2.77
2023-03-03T19:00:01.918Z,2.82
2023-03-03T19:15:02.533Z,3.7
2023-03-03T19:30:02.106Z,2.91
2023-03-03T19:45:01.399Z,2.91
2023-03-03T20:00:01.792Z,2.78
2023-03-03T20:15:01.517Z,2.92
2023-03-03T20:30:01.937Z,3
2023-03-03T20:45:02.643Z,3.2
2023-03-03T21:00:01.762Z,3.18
2023-03-03T21:15:02.667Z,3.26
2023-03-03T21:30:02.290Z,3.27
2023-03-03T21:45:01.563Z,3.35
2023-03-03T22:00:01.977Z,3.38
2023-03-03T22:15:01.692Z,3.44
2023-03-03T22:30:02.115Z,3.26
2023-03-03T22:45:01.389Z,3.31
2023-03-03T23:00:02.119Z,3.22
2023-03-03T23:15:01.925Z,3.35
2023-03-03T23:30:02.292Z,3.29
2023-03-03T23:45:01.562Z,3
